Terminal Aerodrome Forecast
Issued by NWS Upton, NY

Home | Current Version | Previous Version | Text Only | Print | Product List | Glossary On
Versions: 1 2 3 4 5 6 7 8 9 10 11 12 13 14 15 16 17 18 19 20 21 22 23 24 25 26 27 28
000
FTUS41 KOKX 221934 AAA
TAFEWR
TAF AMD
KEWR 221934Z 2220/2324 20012G19KT P6SM SCT025 BKN250
     FM230300 23014KT P6SM VCSH SCT025 BKN050 PROB30 2305/2307 5SM
      -TSRA BKN025 BKN050CB
     FM230800 24010KT P6SM VCSH SCT025 BKN040
     FM231000 26008KT P6SM SCT040 BKN100
     FM231400 30009KT P6SM SCT050
     FM231800 32012KT P6SM SCT250=

USA.gov is the U.S. government's official web portal to all federal, state and local government web resources and services.